createdAt,value
2019-04-07T00:00:32.626Z,8.31
2019-04-07T00:01:32.542Z,8.37
2019-04-07T00:02:33.029Z,8.37
2019-04-07T00:03:32.370Z,8.27
2019-04-07T00:04:32.231Z,8.22
2019-04-07T00:05:32.254Z,8.22
2019-04-07T00:06:32.052Z,8.22
2019-04-07T00:07:32.229Z,8.22
2019-04-07T00:08:31.842Z,8.25
2019-04-07T00:09:32.056Z,8.32
2019-04-07T00:10:31.641Z,8.32
2019-04-07T00:11:31.564Z,8.22
2019-04-07T00:12:32.006Z,8.25
2019-04-07T00:13:31.348Z,8.18
2019-04-07T00:14:31.765Z,8.07
2019-04-07T00:15:31.150Z,8.09
2019-04-07T00:16:31.069Z,8.13
2019-04-07T00:17:31.134Z,8.12
2019-04-07T00:18:30.854Z,8.13
2019-04-07T00:19:30.757Z,8.12
2019-04-07T00:20:30.886Z,8.09
2019-04-07T00:21:30.566Z,8.09
2019-04-07T00:22:30.485Z,8.09
2019-04-07T00:23:30.794Z,8.04
2019-04-07T00:24:30.263Z,7.99
2019-04-07T00:25:30.164Z,7.99
2019-04-07T00:26:30.069Z,7.96
2019-04-07T00:27:30.299Z,7.95
2019-04-07T00:28:30.078Z,7.99
2019-04-07T00:29:29.883Z,8.03
2019-04-07T00:30:30.301Z,7.96
2019-04-07T00:31:29.578Z,7.95
2019-04-07T00:32:29.493Z,8.00
2019-04-07T00:33:29.383Z,7.79
2019-04-07T00:34:29.384Z,7.84
2019-04-07T00:35:32.349Z,7.85
2019-04-07T00:36:29.083Z,7.89
2019-04-07T00:37:29.518Z,7.91
2019-04-07T00:38:29.350Z,7.91
2019-04-07T00:39:28.785Z,7.99
2019-04-07T00:40:28.688Z,7.85
2019-04-07T00:41:28.589Z,7.81
2019-04-07T00:42:29.113Z,7.71
2019-04-07T00:43:29.048Z,7.69
2019-04-07T00:44:29.020Z,7.66
2019-04-07T00:45:28.197Z,7.81
2019-04-07T00:46:28.095Z,7.74
2019-04-07T00:47:28.554Z,7.73
2019-04-07T00:48:28.631Z,7.77
2019-04-07T00:49:28.117Z,7.67
2019-04-07T00:50:28.341Z,7.73
2019-04-07T00:51:27.668Z,7.73
2019-04-07T00:52:27.523Z,7.70
2019-04-07T00:53:27.421Z,7.70
2019-04-07T00:54:28.025Z,7.70
2019-04-07T00:55:27.317Z,7.76
2019-04-07T00:56:27.113Z,7.69
2019-04-07T00:57:27.520Z,7.63
2019-04-07T00:58:26.965Z,7.67
2019-04-07T00:59:26.813Z,7.71
2019-04-07T01:00:26.993Z,7.66
2019-04-07T01:01:27.119Z,7.57
2019-04-07T01:02:26.638Z,7.60
2019-04-07T01:03:26.919Z,7.70
2019-04-07T01:04:26.510Z,7.57
2019-04-07T01:05:35.446Z,7.55
2019-04-07T01:06:26.712Z,7.58
2019-04-07T01:07:26.639Z,7.55
2019-04-07T01:08:25.998Z,7.45
2019-04-07T01:09:26.120Z,7.45
2019-04-07T01:10:26.111Z,7.54
2019-04-07T01:11:25.628Z,7.57
2019-04-07T01:12:25.673Z,7.60
2019-04-07T01:13:25.433Z,7.48
2019-04-07T01:14:25.615Z,7.63
2019-04-07T01:15:25.232Z,7.55
2019-04-07T01:16:25.255Z,7.66
2019-04-07T01:17:25.053Z,7.48
2019-04-07T01:18:26.950Z,7.50
2019-04-07T01:19:25.304Z,7.48
2019-04-07T01:20:24.739Z,7.73
2019-04-07T01:21:24.963Z,7.69
2019-04-07T01:22:24.559Z,7.70
2019-04-07T01:23:24.567Z,7.69
2019-04-07T01:24:24.344Z,7.70
2019-04-07T01:25:24.251Z,7.69
2019-04-07T01:26:24.154Z,7.74
2019-04-07T01:27:24.631Z,7.69
2019-04-07T01:28:23.951Z,7.63
2019-04-07T01:29:24.468Z,7.67
2019-04-07T01:30:23.866Z,7.69
2019-04-07T01:31:24.175Z,7.67
2019-04-07T01:32:24.102Z,7.67
2019-04-07T01:33:23.606Z,7.66
2019-04-07T01:34:23.966Z,7.62
2019-04-07T01:35:23.261Z,7.57
2019-04-07T01:36:23.744Z,7.47
2019-04-07T01:37:23.185Z,7.52
2019-04-07T01:38:22.970Z,7.52
2019-04-07T01:39:22.984Z,7.50
2019-04-07T01:40:23.399Z,7.51
2019-04-07T01:41:22.848Z,7.34
2019-04-07T01:42:22.917Z,7.41
2019-04-07T01:43:22.740Z,7.30
2019-04-07T01:44:22.484Z,7.26
2019-04-07T01:45:22.267Z,7.33
2019-04-07T01:46:22.169Z,7.16
2019-04-07T01:47:22.089Z,7.19
2019-04-07T01:48:22.577Z,7.24
2019-04-07T01:49:21.877Z,7.19
2019-04-07T01:50:22.105Z,7.18
2019-04-07T01:51:21.779Z,7.23
2019-04-07T01:52:21.593Z,7.19
2019-04-07T01:53:21.478Z,7.16
2019-04-07T01:54:21.814Z,7.21
2019-04-07T01:55:21.284Z,7.19
2019-04-07T01:56:21.769Z,7.19
2019-04-07T01:57:21.210Z,7.14
2019-04-07T01:58:21.668Z,7.12
2019-04-07T01:59:20.960Z,7.11
2019-04-07T02:00:20.786Z,7.05
2019-04-07T02:01:20.926Z,7.08
2019-04-07T02:02:20.591Z,7.08
2019-04-07T02:03:20.505Z,7.18
2019-04-07T02:04:20.456Z,7.12
2019-04-07T02:05:20.890Z,7.14
2019-04-07T02:06:20.195Z,7.21
2019-04-07T02:07:20.097Z,7.26
2019-04-07T02:08:20.014Z,7.18
2019-04-07T02:09:19.896Z,7.23
2019-04-07T02:10:19.800Z,7.26
2019-04-07T02:11:19.699Z,7.23
2019-04-07T02:12:19.915Z,7.30
2019-04-07T02:13:19.791Z,7.33
2019-04-07T02:14:20.107Z,7.41
2019-04-07T02:15:19.322Z,7.34
2019-04-07T02:16:19.259Z,7.44
2019-04-07T02:17:19.857Z,7.44
2019-04-07T02:18:19.025Z,7.37
2019-04-07T02:19:19.031Z,7.29
2019-04-07T02:20:19.021Z,7.30
2019-04-07T02:21:18.730Z,7.29
2019-04-07T02:22:19.031Z,7.41
2019-04-07T02:23:18.529Z,7.41
2019-04-07T02:24:19.188Z,7.50
2019-04-07T02:25:18.315Z,7.47
2019-04-07T02:26:18.918Z,7.55
2019-04-07T02:27:18.117Z,7.51
2019-04-07T02:28:18.650Z,7.58
2019-04-07T02:29:18.074Z,7.60
2019-04-07T02:30:17.828Z,7.57
2019-04-07T02:31:17.722Z,7.55
2019-04-07T02:32:17.623Z,7.58
2019-04-07T02:33:18.098Z,7.62
2019-04-07T02:34:17.738Z,7.58
2019-04-07T02:35:17.435Z,7.51
2019-04-07T02:36:24.739Z,7.48
2019-04-07T02:37:17.516Z,7.51
2019-04-07T02:38:17.644Z,7.48
2019-04-07T02:39:18.060Z,7.48
2019-04-07T02:40:16.850Z,7.48
2019-04-07T02:41:17.753Z,7.51
2019-04-07T02:42:17.089Z,7.41
2019-04-07T02:43:16.552Z,7.36
2019-04-07T02:44:16.438Z,7.51
2019-04-07T02:45:17.089Z,7.45
2019-04-07T02:46:16.991Z,7.48
2019-04-07T02:47:16.140Z,7.51
2019-04-07T02:48:16.059Z,7.47
2019-04-07T02:49:16.566Z,7.50
2019-04-07T02:50:15.853Z,7.47
2019-04-07T02:51:15.746Z,7.50
2019-04-07T02:52:16.599Z,7.62
2019-04-07T02:53:16.009Z,7.54
2019-04-07T02:54:15.529Z,7.51
2019-04-07T02:55:15.404Z,7.48
2019-04-07T02:56:15.276Z,7.39
2019-04-07T02:57:15.201Z,7.37
2019-04-07T02:58:15.754Z,7.47
2019-04-07T02:59:14.982Z,7.44
2019-04-07T03:00:15.935Z,7.44
2019-04-07T03:01:14.773Z,7.26
2019-04-07T03:02:14.654Z,7.41
2019-04-07T03:03:14.575Z,7.42
2019-04-07T03:04:14.458Z,7.29
2019-04-07T03:05:14.362Z,7.34
2019-04-07T03:06:26.213Z,7.23
2019-04-07T03:07:14.158Z,7.19
2019-04-07T03:08:14.082Z,7.21
2019-04-07T03:09:15.250Z,7.15
2019-04-07T03:10:13.865Z,7.15
2019-04-07T03:11:13.812Z,7.16
2019-04-07T03:12:13.815Z,7.07
2019-04-07T03:13:14.611Z,7.19
2019-04-07T03:14:14.199Z,7.30
2019-04-07T03:15:13.475Z,7.19
2019-04-07T03:16:13.272Z,7.14
2019-04-07T03:17:13.925Z,7.09
2019-04-07T03:18:13.090Z,7.15
2019-04-07T03:19:13.232Z,7.14
2019-04-07T03:20:12.875Z,7.19
2019-04-07T03:21:13.176Z,7.23
2019-04-07T03:22:12.790Z,7.09
2019-04-07T03:23:12.911Z,7.12
2019-04-07T03:24:12.586Z,7.09
2019-04-07T03:25:13.140Z,7.11
2019-04-07T03:26:12.281Z,7.12
2019-04-07T03:27:12.182Z,7.21
2019-04-07T03:28:12.730Z,7.16
2019-04-07T03:29:11.984Z,7.26
2019-04-07T03:30:13.496Z,7.11
2019-04-07T03:31:12.881Z,7.15
2019-04-07T03:32:15.830Z,7.12
2019-04-07T03:33:14.159Z,7.08
2019-04-07T03:34:13.686Z,7.16
2019-04-07T03:35:12.605Z,7.29
2019-04-07T03:36:12.820Z,7.26
2019-04-07T03:37:24.326Z,7.18
2019-04-07T03:38:12.030Z,7.19
2019-04-07T03:39:10.994Z,7.24
2019-04-07T03:40:11.592Z,7.15
2019-04-07T03:41:11.814Z,7.23
2019-04-07T03:42:10.807Z,7.18
2019-04-07T03:43:10.718Z,7.34
2019-04-07T03:44:10.498Z,7.34
2019-04-07T03:45:11.101Z,7.27
2019-04-07T03:46:10.302Z,7.34
2019-04-07T03:47:10.349Z,7.34
2019-04-07T03:48:10.288Z,7.33
2019-04-07T03:49:10.072Z,7.33
2019-04-07T03:50:10.209Z,7.39
2019-04-07T03:51:10.923Z,7.27
2019-04-07T03:52:09.979Z,7.33
2019-04-07T03:53:10.221Z,7.21
2019-04-07T03:54:10.137Z,7.18
2019-04-07T03:55:09.408Z,7.23
2019-04-07T03:56:10.164Z,7.26
2019-04-07T03:57:09.329Z,7.16
2019-04-07T03:58:09.937Z,7.16
2019-04-07T03:59:09.030Z,7.18
2019-04-07T04:00:08.913Z,7.14
2019-04-07T04:01:08.816Z,7.27
2019-04-07T04:02:08.715Z,7.30
2019-04-07T04:03:08.759Z,7.18
2019-04-07T04:04:09.579Z,7.18
2019-04-07T04:05:08.417Z,7.21
2019-04-07T04:06:09.115Z,7.16
2019-04-07T04:07:20.540Z,7.16
2019-04-07T04:08:08.126Z,7.23
2019-04-07T04:09:09.937Z,7.15
2019-04-07T04:10:08.437Z,7.19
2019-04-07T04:11:07.924Z,7.36
2019-04-07T04:12:08.502Z,7.34
2019-04-07T04:13:07.628Z,7.24
2019-04-07T04:14:07.953Z,7.19
2019-04-07T04:15:07.433Z,7.14
2019-04-07T04:16:08.023Z,7.21
2019-04-07T04:17:07.231Z,7.19
2019-04-07T04:18:07.247Z,7.16
2019-04-07T04:19:07.047Z,7.21
2019-04-07T04:20:06.933Z,7.14
2019-04-07T04:21:07.076Z,7.19
2019-04-07T04:22:07.395Z,7.16
2019-04-07T04:23:06.633Z,7.12
2019-04-07T04:24:06.552Z,7.18
2019-04-07T04:25:06.542Z,7.15
2019-04-07T04:26:06.525Z,7.08
2019-04-07T04:27:06.780Z,7.12
2019-04-07T04:28:06.632Z,7.05
2019-04-07T04:29:06.081Z,7.08
2019-04-07T04:30:06.891Z,6.97
2019-04-07T04:31:06.641Z,6.97
2019-04-07T04:32:05.963Z,7.05
2019-04-07T04:33:06.251Z,6.90
2019-04-07T04:34:05.732Z,6.91
2019-04-07T04:35:06.486Z,6.78
2019-04-07T04:36:05.706Z,6.86
2019-04-07T04:37:05.247Z,6.87
2019-04-07T04:38:05.909Z,6.90
2019-04-07T04:39:05.170Z,6.89
2019-04-07T04:40:05.173Z,6.90
2019-04-07T04:41:04.917Z,6.79
2019-04-07T04:42:05.488Z,6.75
2019-04-07T04:43:04.731Z,6.75
2019-04-07T04:44:04.594Z,6.76
2019-04-07T04:45:04.606Z,6.79
2019-04-07T04:46:04.355Z,6.78
2019-04-07T04:47:04.808Z,6.78
2019-04-07T04:48:04.468Z,6.75
2019-04-07T04:49:04.238Z,6.73
2019-04-07T04:50:04.823Z,6.63
2019-04-07T04:51:03.858Z,6.73
2019-04-07T04:52:03.762Z,6.72
2019-04-07T04:53:04.095Z,6.78
2019-04-07T04:54:03.869Z,6.72
2019-04-07T04:55:03.608Z,6.79
2019-04-07T04:56:03.367Z,6.75
2019-04-07T04:57:06.415Z,6.79
2019-04-07T04:58:04.082Z,6.86
2019-04-07T04:59:04.033Z,6.79
2019-04-07T05:00:03.781Z,6.81
2019-04-07T05:01:03.068Z,6.75
2019-04-07T05:02:02.777Z,6.69
2019-04-07T05:03:02.810Z,6.78
2019-04-07T05:04:02.598Z,6.69
2019-04-07T05:05:02.690Z,6.76
2019-04-07T05:06:02.470Z,6.78
2019-04-07T05:07:02.273Z,6.87
2019-04-07T05:08:05.119Z,6.94
2019-04-07T05:09:02.193Z,6.91
2019-04-07T05:10:01.979Z,6.91
2019-04-07T05:11:01.886Z,6.93
2019-04-07T05:12:04.704Z,6.91
2019-04-07T05:13:01.682Z,6.87
2019-04-07T05:14:01.595Z,6.86
2019-04-07T05:15:01.793Z,6.72
2019-04-07T05:16:01.382Z,6.75
2019-04-07T05:17:01.284Z,6.76
2019-04-07T05:18:01.693Z,6.76
2019-04-07T05:19:01.103Z,6.78
2019-04-07T05:20:01.167Z,6.94
2019-04-07T05:21:00.891Z,6.86
2019-04-07T05:22:01.365Z,6.81
2019-04-07T05:23:00.993Z,6.79
2019-04-07T05:24:00.605Z,6.75
2019-04-07T05:25:00.955Z,6.75
2019-04-07T05:26:00.436Z,6.78
2019-04-07T05:27:00.897Z,6.93
2019-04-07T05:28:00.192Z,7.09
2019-04-07T05:29:00.440Z,7.30
2019-04-07T05:30:00.116Z,7.36
2019-04-07T05:30:59.896Z,7.55
2019-04-07T05:32:00.178Z,7.74
2019-04-07T05:32:59.718Z,7.92
2019-04-07T05:34:00.264Z,8.00
2019-04-07T05:34:59.519Z,8.12
2019-04-07T05:35:59.403Z,8.21
2019-04-07T05:36:59.305Z,8.42
2019-04-07T05:38:03.629Z,8.50
2019-04-07T05:38:59.896Z,8.67
2019-04-07T05:39:59.154Z,8.68
2019-04-07T05:40:58.913Z,8.82
2019-04-07T05:41:59.215Z,8.85
2019-04-07T05:42:58.777Z,8.83
2019-04-07T05:43:58.621Z,8.85
2019-04-07T05:44:58.585Z,8.79
2019-04-07T05:45:59.228Z,8.94
2019-04-07T05:46:58.333Z,9.10
2019-04-07T05:47:58.817Z,9.12
2019-04-07T05:48:58.809Z,9.16
2019-04-07T05:49:59.940Z,9.23
2019-04-07T05:50:59.983Z,9.31
2019-04-07T05:52:01.388Z,9.48
2019-04-07T05:52:57.748Z,9.35
2019-04-07T05:53:58.073Z,9.49
2019-04-07T05:54:57.860Z,9.52
2019-04-07T05:55:57.975Z,9.41
2019-04-07T05:57:00.390Z,9.48
2019-04-07T05:57:57.578Z,9.70
2019-04-07T05:58:57.186Z,9.58
2019-04-07T05:59:57.092Z,9.49
2019-04-07T06:00:57.076Z,9.59
2019-04-07T06:02:00.738Z,9.48
2019-04-07T06:02:57.041Z,9.48
2019-04-07T06:03:56.758Z,9.60
2019-04-07T06:04:58.595Z,9.62
2019-04-07T06:05:57.869Z,9.58
2019-04-07T06:06:56.453Z,9.42
2019-04-07T06:07:56.907Z,9.50
2019-04-07T06:08:56.230Z,9.49
2019-04-07T06:09:56.133Z,9.63
2019-04-07T06:10:59.971Z,9.68
2019-04-07T06:11:56.043Z,9.62
2019-04-07T06:12:56.508Z,9.59
2019-04-07T06:13:56.518Z,9.63
2019-04-07T06:14:56.348Z,9.73
2019-04-07T06:15:55.648Z,9.78
2019-04-07T06:16:55.897Z,9.68
2019-04-07T06:17:58.764Z,9.63
2019-04-07T06:18:55.523Z,9.73
2019-04-07T06:19:55.758Z,9.81
2019-04-07T06:20:55.069Z,9.83
2019-04-07T06:21:54.977Z,9.80
2019-04-07T06:22:54.989Z,9.92
2019-04-07T06:23:58.361Z,10.01
2019-04-07T06:24:54.815Z,10.11
2019-04-07T06:25:57.170Z,10.09
2019-04-07T06:26:54.500Z,10.24
2019-04-07T06:27:54.402Z,10.35
2019-04-07T06:28:58.343Z,10.44
2019-04-07T06:29:59.650Z,10.62
2019-04-07T06:30:54.319Z,10.65
2019-04-07T06:31:54.024Z,10.76
2019-04-07T06:32:53.933Z,10.65
2019-04-07T06:33:55.100Z,10.73
2019-04-07T06:34:54.006Z,10.88
2019-04-07T06:35:55.148Z,10.93
2019-04-07T06:36:55.387Z,11.08
2019-04-07T06:37:54.344Z,10.69
2019-04-07T06:38:53.707Z,10.73
2019-04-07T06:39:53.651Z,10.91
2019-04-07T06:40:57.078Z,11.01
2019-04-07T06:41:53.430Z,10.90
2019-04-07T06:42:53.366Z,11.12
2019-04-07T06:43:52.997Z,11.38
2019-04-07T06:44:52.849Z,11.41
2019-04-07T06:45:54.243Z,11.31
2019-04-07T06:46:52.610Z,11.54
2019-04-07T06:47:53.446Z,11.70
2019-04-07T06:48:52.424Z,11.90
2019-04-07T06:49:53.106Z,11.98
2019-04-07T06:50:57.747Z,11.60
2019-04-07T06:51:52.807Z,11.64
2019-04-07T06:52:52.063Z,11.88
2019-04-07T06:53:52.444Z,11.78
2019-04-07T06:54:55.058Z,11.77
2019-04-07T06:55:51.774Z,11.77
2019-04-07T06:56:52.197Z,11.78
2019-04-07T06:57:51.732Z,11.97
2019-04-07T06:58:51.552Z,11.97
2019-04-07T06:59:51.433Z,12.12
2019-04-07T07:00:53.602Z,12.30
2019-04-07T07:01:51.237Z,11.94
2019-04-07T07:02:51.127Z,12.15
2019-04-07T07:03:51.485Z,12.38
2019-04-07T07:04:51.091Z,12.26
2019-04-07T07:05:51.386Z,12.01
2019-04-07T07:06:51.401Z,12.13
2019-04-07T07:07:50.960Z,12.12
2019-04-07T07:08:52.975Z,12.01
2019-04-07T07:09:51.930Z,12.25
2019-04-07T07:10:50.835Z,12.25
2019-04-07T07:11:50.776Z,12.11
2019-04-07T07:12:50.695Z,12.25
2019-04-07T07:13:50.116Z,12.66
2019-04-07T07:14:50.713Z,13.06
2019-04-07T07:15:49.984Z,13.21
2019-04-07T07:16:49.997Z,12.92
2019-04-07T07:17:50.836Z,13.07
2019-04-07T07:18:53.640Z,13.06
2019-04-07T07:19:49.857Z,13.09
2019-04-07T07:20:49.477Z,13.09
2019-04-07T07:21:50.072Z,13.16
2019-04-07T07:22:49.609Z,13.01
2019-04-07T07:23:50.002Z,12.89
2019-04-07T07:24:49.176Z,13.19
2019-04-07T07:25:49.875Z,13.07
2019-04-07T07:26:49.491Z,13.46
2019-04-07T07:27:48.927Z,13.35
2019-04-07T07:28:48.742Z,13.35
2019-04-07T07:29:51.672Z,13.24
2019-04-07T07:30:51.870Z,13.01
2019-04-07T07:31:51.219Z,12.77
2019-04-07T07:32:48.630Z,12.54
2019-04-07T07:33:48.480Z,12.44
2019-04-07T07:34:48.199Z,12.37
2019-04-07T07:35:49.190Z,12.46
2019-04-07T07:36:52.286Z,12.70
2019-04-07T07:37:48.399Z,12.79
2019-04-07T07:38:57.667Z,12.98
2019-04-07T07:39:47.741Z,13.07
2019-04-07T07:40:49.145Z,13.17
2019-04-07T07:41:50.373Z,13.47
2019-04-07T07:42:49.667Z,13.46
2019-04-07T07:43:48.139Z,13.32
2019-04-07T07:44:47.279Z,13.21
2019-04-07T07:45:48.519Z,12.94
2019-04-07T07:46:49.092Z,13.22
2019-04-07T07:47:51.300Z,13.44
2019-04-07T07:48:46.918Z,12.92
2019-04-07T07:49:47.100Z,13.04
2019-04-07T07:50:47.062Z,13.22
2019-04-07T07:51:48.535Z,13.41
2019-04-07T07:52:49.286Z,13.38
2019-04-07T07:53:47.221Z,13.38
2019-04-07T07:54:46.429Z,13.61
2019-04-07T07:55:46.711Z,13.22
2019-04-07T07:56:48.651Z,13.13
2019-04-07T07:57:46.915Z,13.50
2019-04-07T07:58:46.101Z,13.27
2019-04-07T07:59:46.381Z,13.35
2019-04-07T08:00:46.086Z,13.61
2019-04-07T08:01:47.047Z,13.73
2019-04-07T08:02:49.125Z,13.75
2019-04-07T08:03:45.887Z,13.98
2019-04-07T08:04:45.455Z,13.80
2019-04-07T08:05:45.501Z,13.65
2019-04-07T08:06:45.274Z,13.65
2019-04-07T08:07:48.233Z,13.50
2019-04-07T08:08:47.350Z,13.51
2019-04-07T08:09:45.006Z,13.71
2019-04-07T08:10:45.078Z,13.76
2019-04-07T08:11:44.949Z,14.01
2019-04-07T08:12:45.715Z,14.21
2019-04-07T08:13:45.936Z,14.34
2019-04-07T08:14:44.822Z,14.05
2019-04-07T08:15:44.478Z,13.75
2019-04-07T08:16:44.659Z,13.80
2019-04-07T08:17:44.274Z,13.93
2019-04-07T08:18:46.133Z,13.91
2019-04-07T08:19:45.150Z,14.24
2019-04-07T08:20:45.086Z,14.24
2019-04-07T08:21:45.442Z,14.31
2019-04-07T08:22:44.930Z,14.06
2019-04-07T08:23:45.310Z,14.26
2019-04-07T08:24:43.833Z,14.09
2019-04-07T08:25:43.735Z,14.26
2019-04-07T08:26:43.730Z,14.39
2019-04-07T08:27:44.063Z,14.36
2019-04-07T08:28:43.916Z,14.45
2019-04-07T08:29:43.316Z,14.23
2019-04-07T08:30:47.197Z,14.20
2019-04-07T08:31:43.751Z,14.17
2019-04-07T08:32:43.253Z,14.21
2019-04-07T08:33:43.265Z,14.20
2019-04-07T08:34:42.741Z,14.63
2019-04-07T08:35:43.549Z,14.44
2019-04-07T08:36:44.417Z,14.42
2019-04-07T08:37:45.757Z,14.54
2019-04-07T08:38:42.379Z,14.19
2019-04-07T08:39:42.295Z,14.61
2019-04-07T08:40:42.325Z,14.69
2019-04-07T08:41:42.766Z,14.87
2019-04-07T08:42:42.022Z,15.28
2019-04-07T08:43:42.037Z,15.18
2019-04-07T08:44:41.974Z,15.19
2019-04-07T08:45:42.429Z,15.31
2019-04-07T08:46:43.148Z,15.53
2019-04-07T08:47:41.632Z,15.30
2019-04-07T08:48:41.790Z,15.16
2019-04-07T08:49:41.630Z,14.90
2019-04-07T08:50:42.048Z,14.02
2019-04-07T08:51:41.723Z,14.20
2019-04-07T08:52:43.041Z,14.01
2019-04-07T08:53:43.757Z,13.79
2019-04-07T08:54:40.948Z,14.01
2019-04-07T08:55:41.651Z,13.91
2019-04-07T08:56:40.768Z,14.21
2019-04-07T08:57:41.283Z,14.54
2019-04-07T08:58:41.298Z,14.46
2019-04-07T08:59:42.377Z,14.61
2019-04-07T09:00:40.429Z,14.90
2019-04-07T09:01:40.505Z,14.44
2019-04-07T09:02:40.234Z,14.60
2019-04-07T09:03:44.474Z,15.03
2019-04-07T09:04:40.056Z,15.18
2019-04-07T09:05:39.967Z,14.74
2019-04-07T09:06:40.681Z,14.61
2019-04-07T09:07:40.042Z,14.66
2019-04-07T09:08:40.105Z,14.95
2019-04-07T09:09:44.856Z,15.18
2019-04-07T09:10:39.530Z,14.64
2019-04-07T09:11:41.236Z,14.44
2019-04-07T09:12:39.338Z,14.72
2019-04-07T09:13:39.569Z,14.24
2019-04-07T09:14:40.578Z,14.45
2019-04-07T09:15:42.092Z,14.60
2019-04-07T09:16:39.362Z,14.79
2019-04-07T09:17:44.495Z,14.93
2019-04-07T09:18:38.929Z,15.13
2019-04-07T09:19:39.676Z,14.97
2019-04-07T09:20:42.389Z,15.16
2019-04-07T09:21:41.936Z,15.09
2019-04-07T09:22:38.448Z,14.86
2019-04-07T09:23:38.361Z,15.13
2019-04-07T09:24:38.291Z,15.16
2019-04-07T09:25:40.734Z,15.16
2019-04-07T09:26:40.616Z,14.97
2019-04-07T09:27:38.115Z,15.19
2019-04-07T09:28:37.924Z,14.93
2019-04-07T09:29:37.826Z,14.82
2019-04-07T09:30:37.906Z,14.74
2019-04-07T09:31:37.663Z,14.93
2019-04-07T09:32:37.557Z,14.83
2019-04-07T09:33:38.098Z,14.59
2019-04-07T09:34:38.021Z,14.63
2019-04-07T09:35:37.668Z,14.87
2019-04-07T09:36:37.425Z,15.15
2019-04-07T09:37:37.772Z,15.18
2019-04-07T09:38:37.023Z,15.19
2019-04-07T09:39:53.990Z,15.13
2019-04-07T09:40:37.180Z,15.46
2019-04-07T09:41:37.466Z,15.37
2019-04-07T09:42:36.673Z,15.07
2019-04-07T09:43:36.583Z,15.00
2019-04-07T09:44:37.782Z,15.46
2019-04-07T09:45:38.599Z,15.84
2019-04-07T09:46:36.630Z,15.68
2019-04-07T09:47:36.913Z,16.22
2019-04-07T09:48:38.500Z,15.93
2019-04-07T09:49:36.606Z,16.32
2019-04-07T09:50:36.423Z,16.48
2019-04-07T09:51:39.142Z,16.30
2019-04-07T09:52:35.996Z,16.16
2019-04-07T09:53:36.066Z,16.10
2019-04-07T09:54:35.608Z,16.48
2019-04-07T09:55:35.541Z,16.82
2019-04-07T09:56:36.182Z,16.47
2019-04-07T09:57:37.579Z,16.36
2019-04-07T09:58:35.806Z,16.26
2019-04-07T09:59:35.165Z,16.59
2019-04-07T10:00:35.271Z,16.81
2019-04-07T10:01:35.321Z,16.95
2019-04-07T10:02:35.772Z,16.92
2019-04-07T10:03:37.694Z,16.88
2019-04-07T10:04:37.925Z,17.06
2019-04-07T10:05:34.640Z,16.75
2019-04-07T10:06:34.567Z,16.78
2019-04-07T10:07:34.877Z,16.45
2019-04-07T10:08:35.157Z,15.60
2019-04-07T10:09:34.288Z,14.90
2019-04-07T10:10:34.951Z,14.21
2019-04-07T10:11:34.127Z,14.46
2019-04-07T10:12:34.585Z,14.78
2019-04-07T10:13:34.137Z,15.48
2019-04-07T10:14:33.849Z,15.62
2019-04-07T10:15:33.848Z,16.16
2019-04-07T10:16:35.082Z,16.48
2019-04-07T10:17:34.051Z,17.06
2019-04-07T10:18:34.051Z,17.03
2019-04-07T10:19:33.412Z,17.07
2019-04-07T10:20:34.031Z,16.47
2019-04-07T10:21:33.250Z,16.47
2019-04-07T10:22:33.146Z,16.26
2019-04-07T10:23:33.162Z,16.47
2019-04-07T10:24:32.973Z,16.47
2019-04-07T10:25:33.250Z,16.80
2019-04-07T10:26:33.643Z,16.84
2019-04-07T10:27:32.907Z,17.38
2019-04-07T10:28:33.277Z,17.22
2019-04-07T10:29:33.076Z,16.92
2019-04-07T10:30:32.549Z,17.46
2019-04-07T10:31:32.734Z,17.14
2019-04-07T10:32:32.267Z,17.96
2019-04-07T10:33:32.180Z,18.82
2019-04-07T10:34:32.125Z,19.17
2019-04-07T10:35:32.753Z,19.55
2019-04-07T10:36:31.935Z,19.92
2019-04-07T10:37:31.939Z,20.15
2019-04-07T10:38:31.774Z,19.30
2019-04-07T10:39:31.660Z,18.59
2019-04-07T10:40:31.571Z,17.81
2019-04-07T10:41:31.500Z,18.39
2019-04-07T10:42:31.396Z,18.71
2019-04-07T10:43:31.389Z,18.60
2019-04-07T10:44:31.467Z,17.99
2019-04-07T10:45:31.160Z,17.68
2019-04-07T10:46:31.068Z,16.72
2019-04-07T10:47:30.973Z,16.60
2019-04-07T10:48:31.573Z,17.22
2019-04-07T10:49:30.795Z,18.01
2019-04-07T10:50:31.389Z,17.91
2019-04-07T10:51:30.915Z,17.73
2019-04-07T10:52:31.393Z,16.96
2019-04-07T10:53:32.079Z,17.49
2019-04-07T10:54:30.359Z,17.96
2019-04-07T10:55:30.273Z,18.51
2019-04-07T10:56:30.835Z,18.96
2019-04-07T10:57:30.101Z,19.02
2019-04-07T10:58:30.117Z,19.12
2019-04-07T10:59:30.157Z,18.38
2019-04-07T11:00:30.272Z,17.43
2019-04-07T11:01:29.761Z,17.10
2019-04-07T11:02:29.686Z,17.46
2019-04-07T11:03:29.597Z,17.79
2019-04-07T11:04:29.495Z,17.77
2019-04-07T11:05:29.681Z,17.92
2019-04-07T11:06:29.507Z,17.51
2019-04-07T11:07:29.318Z,17.70
2019-04-07T11:08:29.725Z,18.13
2019-04-07T11:09:29.932Z,18.14
2019-04-07T11:10:35.509Z,18.64
2019-04-07T11:11:28.891Z,18.79
2019-04-07T11:12:28.927Z,19.06
2019-04-07T11:13:28.939Z,18.94
2019-04-07T11:14:29.338Z,18.86
2019-04-07T11:15:28.562Z,18.23
2019-04-07T11:16:28.466Z,18.49
2019-04-07T11:17:29.168Z,18.93
2019-04-07T11:18:28.393Z,19.50
2019-04-07T11:19:28.577Z,18.84
2019-04-07T11:20:28.137Z,18.59
2019-04-07T11:21:28.214Z,18.53
2019-04-07T11:22:28.526Z,18.82
2019-04-07T11:23:28.509Z,18.31
2019-04-07T11:24:30.524Z,18.16
2019-04-07T11:25:28.368Z,17.89
2019-04-07T11:26:27.600Z,18.35
2019-04-07T11:27:27.693Z,18.99
2019-04-07T11:28:28.826Z,19.32
2019-04-07T11:29:27.351Z,19.87
2019-04-07T11:30:27.391Z,19.43
2019-04-07T11:31:27.752Z,18.32
2019-04-07T11:32:27.182Z,18.32
2019-04-07T11:33:27.000Z,17.76
2019-04-07T11:34:27.084Z,18.02
2019-04-07T11:35:29.556Z,17.92
2019-04-07T11:36:26.743Z,18.35
2019-04-07T11:37:27.468Z,17.39
2019-04-07T11:38:26.766Z,16.50
2019-04-07T11:39:27.366Z,17.43
2019-04-07T11:40:27.053Z,17.18
2019-04-07T11:41:27.707Z,16.04
2019-04-07T11:42:26.242Z,15.52
2019-04-07T11:43:26.986Z,15.30
2019-04-07T11:44:26.210Z,16.06
2019-04-07T11:45:26.817Z,16.33
2019-04-07T11:46:26.306Z,17.17
2019-04-07T11:47:25.807Z,16.91
2019-04-07T11:48:25.915Z,15.93
2019-04-07T11:49:25.616Z,16.26
2019-04-07T11:50:25.529Z,16.03
2019-04-07T11:51:26.033Z,15.52
2019-04-07T11:52:25.371Z,15.77
2019-04-07T11:53:25.925Z,15.20
2019-04-07T11:54:25.246Z,15.18
2019-04-07T11:55:26.941Z,15.55
2019-04-07T11:56:25.124Z,15.19
2019-04-07T11:57:25.816Z,15.85
2019-04-07T11:58:31.365Z,16.10
2019-04-07T11:59:24.734Z,15.76
2019-04-07T12:00:25.078Z,16.04
2019-04-07T12:01:24.563Z,16.25
2019-04-07T12:02:24.483Z,17.40
2019-04-07T12:03:26.054Z,17.83
2019-04-07T12:04:25.125Z,18.51
2019-04-07T12:05:24.488Z,17.74
2019-04-07T12:06:25.391Z,16.37
2019-04-07T12:07:25.026Z,15.44
2019-04-07T12:08:25.180Z,15.20
2019-04-07T12:09:23.888Z,15.15
2019-04-07T12:10:23.865Z,14.79
2019-04-07T12:11:24.495Z,15.18
2019-04-07T12:12:24.520Z,15.23
2019-04-07T12:13:23.567Z,15.18
2019-04-07T12:14:23.405Z,15.18
2019-04-07T12:15:26.718Z,15.00
2019-04-07T12:16:24.766Z,14.67
2019-04-07T12:17:23.437Z,14.59
2019-04-07T12:18:23.441Z,14.60
2019-04-07T12:19:24.786Z,14.49
2019-04-07T12:20:23.701Z,14.48
2019-04-07T12:21:25.272Z,14.46
2019-04-07T12:22:22.822Z,14.31
2019-04-07T12:23:25.219Z,14.36
2019-04-07T12:24:26.509Z,14.83
2019-04-07T12:25:23.258Z,15.30
2019-04-07T12:26:22.457Z,15.41
2019-04-07T12:27:22.464Z,15.16
2019-04-07T12:28:22.140Z,15.18
2019-04-07T12:29:22.244Z,15.18
2019-04-07T12:30:23.293Z,15.13
2019-04-07T12:31:22.699Z,14.93
2019-04-07T12:32:21.794Z,14.80
2019-04-07T12:33:23.288Z,14.54
2019-04-07T12:34:22.215Z,14.98
2019-04-07T12:35:21.605Z,15.84
2019-04-07T12:36:23.575Z,16.16
2019-04-07T12:37:21.948Z,16.48
2019-04-07T12:38:21.228Z,16.62
2019-04-07T12:39:21.239Z,16.55
2019-04-07T12:40:22.901Z,16.84
2019-04-07T12:41:23.019Z,16.87
2019-04-07T12:42:20.872Z,16.87
2019-04-07T12:43:20.793Z,17.27
2019-04-07T12:44:20.996Z,16.98
2019-04-07T12:45:20.596Z,16.63
2019-04-07T12:46:21.103Z,16.03
2019-04-07T12:47:20.421Z,16.10
2019-04-07T12:48:21.218Z,15.67
2019-04-07T12:49:20.817Z,15.60
2019-04-07T12:50:21.609Z,15.53
2019-04-07T12:51:21.555Z,15.43
2019-04-07T12:52:20.625Z,15.40
2019-04-07T12:53:20.644Z,15.35
2019-04-07T12:54:20.619Z,15.13
2019-04-07T12:55:19.697Z,14.75
2019-04-07T12:56:19.707Z,14.69
2019-04-07T12:57:19.520Z,14.61
2019-04-07T12:58:19.441Z,14.66
2019-04-07T12:59:19.340Z,14.71
2019-04-07T13:00:22.703Z,14.61
2019-04-07T13:01:19.949Z,14.80
2019-04-07T13:02:20.081Z,14.98
2019-04-07T13:03:19.927Z,15.18
2019-04-07T13:04:19.032Z,15.19